La rose des vents
Donnes mto: Semaine 09/04/07 - 15/04/07 (S 15)
Date Horaire Temp. E. Hum. E. P.atmo. Pluie Vent 1mn Direction Ensoleilleme Ev.Tr. Solaire P. de rose Temp au vent Rafales
09/04/2007 00:00 10,6 C 89 % 1020,0 hPa 0,0 l/m 1,3 km/h (1 Bft) NO 0,00 h 0,025 mm 0 W/m 8,8 C 10,6 C 2,7 km/h (1 Bft)
09/04/2007 01:00 10,3 C 89 % 1020,0 hPa 0,0 l/m 0,8 km/h (0 Bft) N 0,00 h 0,025 mm 0 W/m 8,6 C 10,3 C 2,4 km/h (1 Bft)
09/04/2007 02:00 10,5 C 90 % 1019,7 hPa 0,0 l/m 5,4 km/h (1 Bft) O 0,00 h 0,000 mm 0 W/m 8,8 C 10,5 C 7,6 km/h (2 Bft)
09/04/2007 03:00 9,8 C 88 % 1019,3 hPa 0,0 l/m 2,3 km/h (1 Bft) O-NO 0,00 h 0,025 mm 0 W/m 7,9 C 9,8 C 3,4 km/h (1 Bft)
09/04/2007 04:00 9,2 C 88 % 1019,3 hPa 0,0 l/m 2,0 km/h (1 Bft) NO 0,00 h 0,025 mm 0 W/m 7,3 C 9,2 C 3,4 km/h (1 Bft)
09/04/2007 05:00 9,5 C 85 % 1019,2 hPa 0,0 l/m 2,5 km/h (1 Bft) NO 0,00 h 0,025 mm 0 W/m 7,1 C 9,4 C 4,1 km/h (1 Bft)
09/04/2007 06:00 9,5 C 82 % 1019,1 hPa 0,0 l/m 1,7 km/h (1 Bft) NO 0,00 h 0,025 mm 5 W/m 6,7 C 9,5 C 2,4 km/h (1 Bft)
09/04/2007 07:00 9,1 C 82 % 1019,5 hPa 0,0 l/m 2,2 km/h (1 Bft) NO 0,03 h 0,000 mm 26 W/m 6,1 C 9,0 C 3,2 km/h (1 Bft)
09/04/2007 08:00 10,5 C 80 % 1019,9 hPa 0,0 l/m 1,5 km/h (1 Bft) E-NE 0,23 h 0,025 mm 121 W/m 7,1 C 10,4 C 3,2 km/h (1 Bft)
09/04/2007 09:00 13,6 C 75 % 1019,9 hPa 0,0 l/m 3,0 km/h (1 Bft) NE 1,00 h 0,076 mm 369 W/m 9,3 C 13,6 C 5,1 km/h (1 Bft)
09/04/2007 10:00 15,1 C 74 % 1019,8 hPa 0,0 l/m 3,2 km/h (1 Bft) E 1,00 h 0,203 mm 569 W/m 10,6 C 15,1 C 6,2 km/h (2 Bft)
09/04/2007 11:00 16,5 C 72 % 1019,7 hPa 0,0 l/m 7,0 km/h (2 Bft) E 1,00 h 0,305 mm 750 W/m 11,5 C 16,5 C 11,4 km/h (2 Bft)
09/04/2007 12:00 17,0 C 71 % 1019,7 hPa 0,0 l/m 8,9 km/h (2 Bft) E 0,77 h 0,432 mm 704 W/m 11,7 C 17,0 C 13,9 km/h (3 Bft)
09/04/2007 13:00 17,2 C 70 % 1019,7 hPa 0,0 l/m 12,9 km/h (3 Bft) E 0,80 h 0,406 mm 639 W/m 11,5 C 17,2 C 18,1 km/h (3 Bft)
09/04/2007 14:00 15,8 C 73 % 1019,8 hPa 0,0 l/m 7,5 km/h (2 Bft) E 0,13 h 0,406 mm 351 W/m 10,9 C 15,8 C 12,3 km/h (3 Bft)
09/04/2007 15:00 16,8 C 70 % 1019,3 hPa 0,0 l/m 6,9 km/h (2 Bft) E-NE 0,47 h 0,229 mm 463 W/m 11,3 C 16,8 C 10,7 km/h (2 Bft)
09/04/2007 16:00 16,9 C 70 % 1018,4 hPa 0,0 l/m 5,7 km/h (1 Bft) E 0,95 h 0,279 mm 569 W/m 11,4 C 16,9 C 9,9 km/h (2 Bft)
09/04/2007 17:00 16,2 C 71 % 1018,0 hPa 0,0 l/m 5,2 km/h (1 Bft) E-SE 0,93 h 0,330 mm 361 W/m 10,9 C 16,2 C 8,6 km/h (2 Bft)
09/04/2007 18:00 15,0 C 75 % 1018,1 hPa 0,0 l/m 3,4 km/h (1 Bft) S 0,38 h 0,203 mm 139 W/m 10,5 C 15,0 C 6,1 km/h (2 Bft)
09/04/2007 19:00 14,0 C 78 % 1018,2 hPa 0,0 l/m 2,1 km/h (1 Bft) S 0,00 h 0,076 mm 46 W/m 10,2 C 14,0 C 3,8 km/h (1 Bft)
09/04/2007 20:00 12,7 C 86 % 1018,2 hPa 0,0 l/m 0,9 km/h (0 Bft) SE 0,00 h 0,025 mm 5 W/m 10,3 C 12,7 C 1,8 km/h (1 Bft)
09/04/2007 21:00 11,8 C 91 % 1018,5 hPa 0,0 l/m 0,7 km/h (0 Bft) E-NE 0,00 h 0,000 mm 0 W/m 10,4 C 11,8 C 1,2 km/h (1 Bft)
09/04/2007 22:00 11,9 C 92 % 1018,6 hPa 0,0 l/m 0,0 km/h (0 Bft) N 0,00 h 0,000 mm 0 W/m 10,6 C 11,9 C 0,0 km/h (0 Bft)
09/04/2007 23:00 11,9 C 92 % 1018,4 hPa 0,0 l/m 0,1 km/h (0 Bft) E-NE 0,00 h 0,000 mm 0 W/m 10,6 C 11,9 C 0,3 km/h (0 Bft)
10/04/2007 00:00 11,4 C 92 % 1018,4 hPa 0,0 l/m 0,1 km/h (0 Bft) E-NE 0,00 h 0,000 mm 0 W/m 10,1 C 11,4 C 0,3 km/h (0 Bft)
10/04/2007 01:00 11,2 C 93 % 1018,1 hPa 0,0 l/m 0,1 km/h (0 Bft) E-NE 0,00 h 0,000 mm 0 W/m 10,1 C 11,2 C 0,7 km/h (0 Bft)
10/04/2007 02:00 11,3 C 93 % 1018,0 hPa 0,0 l/m 0,6 km/h (0 Bft) N-NE 0,00 h 0,000 mm 0 W/m 10,2 C 11,3 C 1,7 km/h (1 Bft)
10/04/2007 03:00 11,4 C 93 % 1018,1 hPa 0,0 l/m 1,5 km/h (1 Bft) NO 0,00 h 0,000 mm 0 W/m 10,3 C 11,4 C 3,5 km/h (1 Bft)
10/04/2007 04:00 11,6 C 93 % 1018,6 hPa 0,0 l/m 0,6 km/h (0 Bft) N-NO 0,00 h 0,000 mm 0 W/m 10,5 C 11,6 C 1,7 km/h (1 Bft)
10/04/2007 05:00 11,6 C 93 % 1018,7 hPa 0,0 l/m 0,7 km/h (0 Bft) NO 0,00 h 0,000 mm 0 W/m 10,4 C 11,6 C 1,8 km/h (1 Bft)
10/04/2007 06:00 11,5 C 92 % 1018,3 hPa 0,0 l/m 3,0 km/h (1 Bft) N 0,00 h 0,000 mm 0 W/m 10,2 C 11,5 C 5,6 km/h (1 Bft)
10/04/2007 07:00 11,8 C 91 % 1018,3 hPa 0,0 l/m 2,6 km/h (1 Bft) NE 0,00 h 0,000 mm 20 W/m 10,4 C 11,8 C 4,4 km/h (1 Bft)
10/04/2007 08:00 12,4 C 87 % 1019,1 hPa 0,0 l/m 1,8 km/h (1 Bft) N 0,18 h 0,025 mm 111 W/m 10,3 C 12,4 C 4,1 km/h (1 Bft)
10/04/2007 09:00 13,0 C 81 % 1019,5 hPa 0,0 l/m 1,7 km/h (1 Bft) N-NE 0,00 h 0,051 mm 84 W/m 9,8 C 13,0 C 3,5 km/h (1 Bft)
10/04/2007 10:00 13,8 C 80 % 1019,8 hPa 0,0 l/m 5,9 km/h (2 Bft) E 0,00 h 0,051 mm 191 W/m 10,5 C 13,8 C 8,0 km/h (2 Bft)
10/04/2007 11:00 14,2 C 83 % 1020,3 hPa 0,0 l/m 5,5 km/h (1 Bft) E 0,00 h 0,127 mm 237 W/m 11,5 C 14,2 C 8,8 km/h (2 Bft)
10/04/2007 12:00 14,6 C 83 % 1020,3 hPa 0,0 l/m 5,8 km/h (2 Bft) E 0,00 h 0,127 mm 318 W/m 11,7 C 14,6 C 9,6 km/h (2 Bft)
10/04/2007 13:00 14,7 C 80 % 1020,3 hPa 0,0 l/m 5,8 km/h (2 Bft) E 0,00 h 0,178 mm 248 W/m 11,2 C 14,7 C 9,9 km/h (2 Bft)
10/04/2007 14:00 15,2 C 77 % 1019,9 hPa 0,0 l/m 5,8 km/h (2 Bft) E 0,05 h 0,152 mm 346 W/m 11,3 C 15,2 C 9,1 km/h (2 Bft)
10/04/2007 15:00 16,3 C 74 % 1019,5 hPa 0,0 l/m 6,0 km/h (2 Bft) E 0,85 h 0,203 mm 644 W/m 11,7 C 16,3 C 9,9 km/h (2 Bft)
10/04/2007 16:00 15,6 C 76 % 1019,2 hPa 0,0 l/m 6,7 km/h (2 Bft) E 0,58 h 0,356 mm 362 W/m 11,4 C 15,6 C 10,6 km/h (2 Bft)
10/04/2007 17:00 14,7 C 79 % 1018,9 hPa 0,0 l/m 4,3 km/h (1 Bft) E 0,25 h 0,203 mm 215 W/m 11,1 C 14,7 C 6,8 km/h (2 Bft)
10/04/2007 18:00 14,1 C 81 % 1018,8 hPa 0,0 l/m 1,6 km/h (1 Bft) E 0,00 h 0,127 mm 116 W/m 10,8 C 14,1 C 3,7 km/h (1 Bft)
10/04/2007 19:00 13,4 C 83 % 1019,2 hPa 0,0 l/m 0,1 km/h (0 Bft) E 0,02 h 0,076 mm 40 W/m 10,6 C 13,4 C 0,5 km/h (0 Bft)
10/04/2007 20:00 12,5 C 87 % 1019,4 hPa 0,0 l/m 0,0 km/h (0 Bft) N 0,00 h 0,025 mm 6 W/m 10,3 C 12,5 C 0,2 km/h (0 Bft)
10/04/2007 21:00 11,5 C 88 % 1019,8 hPa 0,0 l/m 0,0 km/h (0 Bft) E 0,00 h 0,000 mm 0 W/m 9,5 C 11,5 C 0,2 km/h (0 Bft)
10/04/2007 22:00 11,1 C 89 % 1020,3 hPa 0,0 l/m 0,8 km/h (0 Bft) E-NE 0,00 h 0,025 mm 0 W/m 9,4 C 11,1 C 2,2 km/h (1 Bft)
10/04/2007 23:00 10,7 C 90 % 1020,3 hPa 0,0 l/m 0,3 km/h (0 Bft) NE 0,00 h 0,025 mm 0 W/m 9,1 C 10,7 C 0,7 km/h (0 Bft)
11/04/2007 00:00 10,8 C 91 % 1020,2 hPa 0,0 l/m 2,7 km/h (1 Bft) SE 0,00 h 0,000 mm 0 W/m 9,5 C 10,8 C 4,3 km/h (1 Bft)
11/04/2007 01:00 10,4 C 91 % 1020,0 hPa 0,0 l/m 0,7 km/h (0 Bft) SE 0,00 h 0,025 mm 0 W/m 9,0 C 10,4 C 2,0 km/h (1 Bft)
11/04/2007 02:00 10,3 C 90 % 1019,9 hPa 0,0 l/m 2,3 km/h (1 Bft) SE 0,00 h 0,000 mm 0 W/m 8,8 C 10,3 C 3,5 km/h (1 Bft)
11/04/2007 03:00 9,6 C 87 % 1019,6 hPa 0,0 l/m 3,4 km/h (1 Bft) NO 0,00 h 0,025 mm 0 W/m 7,5 C 9,5 C 5,4 km/h (1 Bft)
11/04/2007 04:00 9,3 C 83 % 1019,4 hPa 0,0 l/m 2,7 km/h (1 Bft) N-NO 0,00 h 0,025 mm 0 W/m 6,6 C 9,2 C 4,6 km/h (1 Bft)
11/04/2007 05:00 8,9 C 81 % 1019,2 hPa 0,0 l/m 1,7 km/h (1 Bft) N-NO 0,00 h 0,025 mm 0 W/m 5,9 C 8,9 C 2,6 km/h (1 Bft)
11/04/2007 06:00 9,6 C 77 % 1019,0 hPa 0,0 l/m 3,9 km/h (1 Bft) O 0,00 h 0,025 mm 5 W/m 5,8 C 9,4 C 5,4 km/h (1 Bft)
11/04/2007 07:00 9,8 C 66 % 1019,5 hPa 0,0 l/m 3,6 km/h (1 Bft) N-NO 0,03 h 0,025 mm 27 W/m 3,6 C 9,5 C 5,0 km/h (1 Bft)
11/04/2007 08:00 12,1 C 62 % 1020,2 hPa 0,0 l/m 0,4 km/h (0 Bft) N-NO 0,32 h 0,025 mm 134 W/m 5,0 C 12,1 C 1,3 km/h (1 Bft)
11/04/2007 09:00 16,2 C 52 % 1020,2 hPa 0,0 l/m 3,5 km/h (1 Bft) E 1,00 h 0,076 mm 403 W/m 6,4 C 16,2 C 5,9 km/h (2 Bft)
11/04/2007 10:00 17,5 C 49 % 1020,5 hPa 0,0 l/m 7,7 km/h (2 Bft) E-NE 1,00 h 0,254 mm 564 W/m 6,6 C 17,5 C 11,8 km/h (2 Bft)
11/04/2007 11:00 18,7 C 45 % 1020,6 hPa 0,0 l/m 12,5 km/h (3 Bft) E-NE 1,00 h 0,356 mm 694 W/m 6,5 C 18,7 C 18,3 km/h (3 Bft)
11/04/2007 12:00 19,7 C 42 % 1020,2 hPa 0,0 l/m 12,3 km/h (3 Bft) E 1,00 h 0,483 mm 780 W/m 6,3 C 19,7 C 18,0 km/h (3 Bft)
11/04/2007 13:00 20,3 C 39 % 1019,6 hPa 0,0 l/m 16,9 km/h (3 Bft) E 1,00 h 0,559 mm 815 W/m 5,7 C 20,3 C 22,6 km/h (4 Bft)
11/04/2007 14:00 19,8 C 41 % 1019,2 hPa 0,0 l/m 14,0 km/h (3 Bft) E-NE 0,83 h 0,635 mm 650 W/m 6,1 C 19,8 C 20,6 km/h (4 Bft)
11/04/2007 15:00 19,0 C 46 % 1018,7 hPa 0,0 l/m 10,0 km/h (2 Bft) E 0,95 h 0,483 mm 717 W/m 6,9 C 19,0 C 17,0 km/h (3 Bft)
11/04/2007 16:00 18,3 C 52 % 1018,5 hPa 0,0 l/m 8,7 km/h (2 Bft) E 0,80 h 0,483 mm 544 W/m 8,1 C 18,3 C 14,1 km/h (3 Bft)
11/04/2007 17:00 18,3 C 51 % 1018,3 hPa 0,0 l/m 9,0 km/h (2 Bft) E 0,98 h 0,356 mm 413 W/m 8,0 C 18,3 C 14,0 km/h (3 Bft)
11/04/2007 18:00 16,8 C 50 % 1018,7 hPa 0,0 l/m 4,7 km/h (1 Bft) NE 0,12 h 0,305 mm 143 W/m 6,4 C 16,8 C 7,6 km/h (2 Bft)
11/04/2007 19:00 16,1 C 48 % 1018,4 hPa 0,0 l/m 2,9 km/h (1 Bft) NE 0,00 h 0,102 mm 29 W/m 4,9 C 16,1 C 5,5 km/h (1 Bft)
11/04/2007 20:00 15,5 C 46 % 1018,0 hPa 0,0 l/m 2,1 km/h (1 Bft) N-NE 0,00 h 0,051 mm 0 W/m 3,9 C 15,5 C 4,1 km/h (1 Bft)
11/04/2007 21:00 15,3 C 45 % 1018,3 hPa 0,0 l/m 0,6 km/h (0 Bft) N-NE 0,00 h 0,025 mm 0 W/m 3,4 C 15,3 C 1,8 km/h (1 Bft)
11/04/2007 22:00 15,4 C 43 % 1018,3 hPa 0,0 l/m 3,0 km/h (1 Bft) N 0,00 h 0,051 mm 0 W/m 3,0 C 15,4 C 5,7 km/h (1 Bft)
11/04/2007 23:00 15,5 C 41 % 1017,8 hPa 0,0 l/m 4,2 km/h (1 Bft) NE 0,00 h 0,076 mm 0 W/m 2,3 C 15,5 C 5,9 km/h (2 Bft)
12/04/2007 00:00 15,0 C 44 % 1018,1 hPa 0,0 l/m 0,8 km/h (0 Bft) E-NE 0,00 h 0,076 mm 0 W/m 2,7 C 15,0 C 2,1 km/h (1 Bft)
12/04/2007 01:00 14,7 C 43 % 1018,1 hPa 0,0 l/m 4,6 km/h (1 Bft) NE 0,00 h 0,051 mm 0 W/m 2,1 C 14,7 C 7,3 km/h (2 Bft)
12/04/2007 02:00 15,9 C 38 % 1017,7 hPa 0,0 l/m 3,5 km/h (1 Bft) NE 0,00 h 0,076 mm 0 W/m 1,7 C 15,9 C 6,1 km/h (2 Bft)
12/04/2007 03:00 15,0 C 40 % 1017,2 hPa 0,0 l/m 3,4 km/h (1 Bft) E-NE 0,00 h 0,076 mm 0 W/m 1,7 C 15,0 C 6,0 km/h (2 Bft)
12/04/2007 04:00 14,6 C 41 % 1016,9 hPa 0,0 l/m 1,6 km/h (1 Bft) E-NE 0,00 h 0,076 mm 0 W/m 1,5 C 14,6 C 3,2 km/h (1 Bft)
12/04/2007 05:00 14,0 C 44 % 1016,9 hPa 0,0 l/m 2,0 km/h (1 Bft) E-NE 0,00 h 0,051 mm 0 W/m 2,1 C 14,0 C 3,7 km/h (1 Bft)
12/04/2007 06:00 13,7 C 46 % 1016,9 hPa 0,0 l/m 0,8 km/h (0 Bft) NE 0,00 h 0,051 mm 6 W/m 2,4 C 13,7 C 1,9 km/h (1 Bft)
12/04/2007 07:00 12,8 C 51 % 1017,2 hPa 0,0 l/m 1,0 km/h (0 Bft) S-SE 0,10 h 0,025 mm 46 W/m 2,8 C 12,8 C 2,1 km/h (1 Bft)
12/04/2007 08:00 14,1 C 53 % 1017,5 hPa 0,0 l/m 3,2 km/h (1 Bft) E-NE 0,00 h 0,025 mm 134 W/m 4,7 C 14,1 C 5,3 km/h (1 Bft)
12/04/2007 09:00 15,4 C 54 % 1017,1 hPa 0,0 l/m 4,3 km/h (1 Bft) E 0,35 h 0,102 mm 245 W/m 6,1 C 15,4 C 6,6 km/h (2 Bft)
12/04/2007 10:00 17,1 C 56 % 1017,3 hPa 0,0 l/m 3,2 km/h (1 Bft) E 0,23 h 0,152 mm 310 W/m 8,3 C 17,1 C 5,7 km/h (1 Bft)
12/04/2007 11:00 18,4 C 59 % 1017,8 hPa 0,0 l/m 3,2 km/h (1 Bft) E-SE 0,55 h 0,203 mm 491 W/m 10,2 C 18,4 C 6,3 km/h (2 Bft)
12/04/2007 12:00 19,9 C 56 % 1017,7 hPa 0,0 l/m 4,2 km/h (1 Bft) E-SE 0,37 h 0,305 mm 426 W/m 10,7 C 19,9 C 7,7 km/h (2 Bft)
12/04/2007 13:00 20,8 C 50 % 1017,1 hPa 0,0 l/m 13,4 km/h (3 Bft) E-NE 0,13 h 0,279 mm 351 W/m 9,9 C 20,8 C 18,7 km/h (3 Bft)
12/04/2007 14:00 21,3 C 47 % 1016,6 hPa 0,0 l/m 13,1 km/h (3 Bft) E 0,00 h 0,305 mm 269 W/m 9,6 C 21,3 C 18,5 km/h (3 Bft)
12/04/2007 15:00 22,0 C 43 % 1015,9 hPa 0,0 l/m 19,2 km/h (3 Bft) E-NE 0,00 h 0,279 mm 209 W/m 8,9 C 22,0 C 25,9 km/h (4 Bft)
12/04/2007 16:00 21,0 C 46 % 1015,5 hPa 0,0 l/m 19,3 km/h (3 Bft) E-NE 0,00 h 0,305 mm 151 W/m 9,0 C 21,0 C 26,0 km/h (4 Bft)
12/04/2007 17:00 20,0 C 51 % 1015,2 hPa 0,0 l/m 19,3 km/h (3 Bft) E-NE 0,00 h 0,254 mm 128 W/m 9,4 C 20,0 C 26,7 km/h (4 Bft)
12/04/2007 18:00 18,5 C 59 % 1015,6 hPa 0,0 l/m 11,3 km/h (2 Bft) E 0,00 h 0,203 mm 46 W/m 10,3 C 18,5 C 18,2 km/h (3 Bft)
12/04/2007 19:00 16,9 C 66 % 1016,6 hPa 0,0 l/m 9,5 km/h (2 Bft) E 0,00 h 0,102 mm 15 W/m 10,5 C 16,9 C 15,4 km/h (3 Bft)
12/04/2007 20:00 16,3 C 67 % 1017,2 hPa 0,0 l/m 6,6 km/h (2 Bft) E-NE 0,00 h 0,051 mm 0 W/m 10,1 C 16,3 C 10,0 km/h (2 Bft)
12/04/2007 21:00 16,5 C 65 % 1017,7 hPa 0,0 l/m 10,0 km/h (2 Bft) NE 0,00 h 0,025 mm 0 W/m 9,9 C 16,5 C 14,9 km/h (3 Bft)
12/04/2007 22:00 17,5 C 57 % 1017,8 hPa 0,0 l/m 10,9 km/h (2 Bft) NE 0,00 h 0,076 mm 0 W/m 8,9 C 17,5 C 16,0 km/h (3 Bft)
12/04/2007 23:00 16,9 C 65 % 1018,0 hPa 0,2 l/m 12,0 km/h (2 Bft) E-NE 0,00 h 0,076 mm 0 W/m 10,2 C 16,9 C 17,9 km/h (3 Bft)
13/04/2007 00:00 15,2 C 79 % 1018,6 hPa 0,4 l/m 6,9 km/h (2 Bft) N-NE 0,00 h 0,076 mm 0 W/m 11,5 C 15,2 C 10,7 km/h (2 Bft)
13/04/2007 01:00 14,4 C 82 % 1018,5 hPa 1,0 l/m 4,6 km/h (1 Bft) N 0,00 h 0,025 mm 0 W/m 11,4 C 14,4 C 8,2 km/h (2 Bft)
13/04/2007 02:00 13,6 C 87 % 1017,3 hPa 0,2 l/m 6,6 km/h (2 Bft) N 0,00 h 0,025 mm 0 W/m 11,6 C 13,6 C 11,0 km/h (2 Bft)
13/04/2007 03:00 14,4 C 81 % 1016,0 hPa 0,0 l/m 5,1 km/h (1 Bft) N 0,00 h 0,025 mm 0 W/m 11,3 C 14,4 C 8,9 km/h (2 Bft)
13/04/2007 04:00 15,1 C 74 % 1015,5 hPa 0,2 l/m 3,3 km/h (1 Bft) N-NE 0,00 h 0,025 mm 0 W/m 10,6 C 15,1 C 6,2 km/h (2 Bft)
13/04/2007 05:00 14,9 C 76 % 1015,3 hPa 0,0 l/m 3,5 km/h (1 Bft) E-SE 0,00 h 0,025 mm 0 W/m 10,7 C 14,9 C 5,8 km/h (2 Bft)
13/04/2007 06:00 14,8 C 77 % 1015,6 hPa 0,0 l/m 10,8 km/h (2 Bft) E 0,00 h 0,025 mm 0 W/m 10,8 C 14,8 C 16,1 km/h (3 Bft)
13/04/2007 07:00 15,1 C 68 % 1017,2 hPa 0,0 l/m 14,7 km/h (3 Bft) NE 0,00 h 0,051 mm 10 W/m 9,2 C 15,1 C 21,3 km/h (4 Bft)
13/04/2007 08:00 16,2 C 55 % 1017,4 hPa 0,0 l/m 14,5 km/h (3 Bft) NE 0,00 h 0,076 mm 30 W/m 7,0 C 16,2 C 21,9 km/h (4 Bft)
13/04/2007 09:00 16,8 C 55 % 1016,9 hPa 0,0 l/m 13,6 km/h (3 Bft) NE 0,00 h 0,102 mm 40 W/m 7,8 C 16,8 C 20,5 km/h (4 Bft)
13/04/2007 10:00 17,3 C 59 % 1016,2 hPa 0,0 l/m 10,9 km/h (2 Bft) N-NE 0,00 h 0,102 mm 72 W/m 9,3 C 17,3 C 17,1 km/h (3 Bft)
13/04/2007 11:00 19,0 C 50 % 1016,2 hPa 0,0 l/m 14,6 km/h (3 Bft) NE 0,00 h 0,102 mm 68 W/m 8,4 C 19,0 C 22,1 km/h (4 Bft)
13/04/2007 12:00 19,0 C 53 % 1016,5 hPa 0,0 l/m 11,3 km/h (2 Bft) NE 0,00 h 0,152 mm 132 W/m 9,0 C 19,0 C 16,3 km/h (3 Bft)
13/04/2007 13:00 19,5 C 52 % 1016,1 hPa 0,0 l/m 13,0 km/h (3 Bft) E-NE 0,00 h 0,152 mm 133 W/m 9,5 C 19,5 C 17,9 km/h (3 Bft)
13/04/2007 14:00 18,2 C 61 % 1017,0 hPa 0,2 l/m 6,9 km/h (2 Bft) E 0,00 h 0,178 mm 96 W/m 10,5 C 18,2 C 11,4 km/h (2 Bft)
13/04/2007 15:00 16,2 C 74 % 1017,4 hPa 0,2 l/m 3,0 km/h (1 Bft) O 0,00 h 0,102 mm 88 W/m 11,6 C 16,2 C 4,9 km/h (1 Bft)
13/04/2007 16:00 16,8 C 70 % 1016,2 hPa 0,0 l/m 2,0 km/h (1 Bft) N-NE 0,00 h 0,051 mm 120 W/m 11,3 C 16,8 C 3,6 km/h (1 Bft)
13/04/2007 17:00 17,7 C 66 % 1015,5 hPa 0,0 l/m 1,7 km/h (1 Bft) E 0,00 h 0,076 mm 117 W/m 11,2 C 17,7 C 3,4 km/h (1 Bft)
13/04/2007 18:00 17,0 C 72 % 1015,6 hPa 0,0 l/m 5,5 km/h (1 Bft) S 0,00 h 0,076 mm 61 W/m 11,9 C 17,0 C 8,3 km/h (2 Bft)
13/04/2007 19:00 16,3 C 72 % 1016,0 hPa 0,0 l/m 5,0 km/h (1 Bft) N 0,00 h 0,051 mm 15 W/m 11,3 C 16,3 C 8,0 km/h (2 Bft)
13/04/2007 20:00 17,4 C 59 % 1015,5 hPa 0,0 l/m 12,1 km/h (2 Bft) N-NE 0,00 h 0,025 mm 0 W/m 9,2 C 17,4 C 19,5 km/h (3 Bft)
13/04/2007 21:00 18,2 C 56 % 1015,9 hPa 0,4 l/m 12,0 km/h (2 Bft) N-NE 0,00 h 0,076 mm 0 W/m 9,1 C 18,2 C 18,8 km/h (3 Bft)
13/04/2007 22:00 17,2 C 61 % 1015,7 hPa 0,0 l/m 12,2 km/h (2 Bft) N 0,00 h 0,102 mm 0 W/m 9,6 C 17,2 C 19,7 km/h (3 Bft)
13/04/2007 23:00 17,0 C 65 % 1015,3 hPa 0,2 l/m 12,3 km/h (3 Bft) N 0,00 h 0,076 mm 0 W/m 10,3 C 17,0 C 20,2 km/h (4 Bft)
14/04/2007 00:00 14,9 C 79 % 1016,0 hPa 2,6 l/m 7,7 km/h (2 Bft) N 0,00 h 0,076 mm 0 W/m 11,3 C 14,9 C 13,6 km/h (3 Bft)
14/04/2007 01:00 14,3 C 82 % 1014,6 hPa 0,2 l/m 12,6 km/h (3 Bft) N 0,00 h 0,051 mm 0 W/m 11,2 C 14,3 C 22,2 km/h (4 Bft)
14/04/2007 02:00 16,7 C 62 % 1013,7 hPa 0,2 l/m 10,3 km/h (2 Bft) NE 0,00 h 0,051 mm 0 W/m 9,4 C 16,7 C 17,1 km/h (3 Bft)
14/04/2007 03:00 16,7 C 60 % 1013,3 hPa 0,0 l/m 10,8 km/h (2 Bft) N-NE 0,00 h 0,076 mm 0 W/m 8,7 C 16,7 C 17,1 km/h (3 Bft)
14/04/2007 04:00 19,1 C 46 % 1012,5 hPa 0,0 l/m 19,3 km/h (3 Bft) N-NE 0,00 h 0,076 mm 0 W/m 7,2 C 19,1 C 30,4 km/h (5 Bft)
14/04/2007 05:00 19,6 C 43 % 1012,3 hPa 0,0 l/m 14,9 km/h (3 Bft) N-NE 0,00 h 0,152 mm 0 W/m 6,7 C 19,6 C 23,4 km/h (4 Bft)
14/04/2007 06:00 19,2 C 44 % 1012,8 hPa 0,0 l/m 11,9 km/h (2 Bft) NE 0,00 h 0,152 mm 0 W/m 6,7 C 19,2 C 18,0 km/h (3 Bft)
14/04/2007 07:00 18,6 C 47 % 1014,0 hPa 0,0 l/m 13,0 km/h (3 Bft) N-NE 0,00 h 0,102 mm 13 W/m 7,1 C 18,6 C 19,6 km/h (3 Bft)
14/04/2007 08:00 18,8 C 45 % 1014,4 hPa 0,0 l/m 15,0 km/h (3 Bft) NE 0,00 h 0,102 mm 29 W/m 6,6 C 18,8 C 22,1 km/h (4 Bft)
14/04/2007 09:00 18,9 C 46 % 1014,5 hPa 0,0 l/m 10,7 km/h (2 Bft) NE 0,00 h 0,152 mm 113 W/m 7,0 C 18,9 C 15,9 km/h (3 Bft)
14/04/2007 10:00 20,2 C 47 % 1014,8 hPa 0,0 l/m 7,6 km/h (2 Bft) NE 0,27 h 0,152 mm 308 W/m 8,4 C 20,2 C 11,8 km/h (2 Bft)
14/04/2007 11:00 22,8 C 39 % 1014,3 hPa 0,0 l/m 14,8 km/h (3 Bft) E 0,92 h 0,254 mm 560 W/m 8,0 C 22,8 C 20,6 km/h (4 Bft)
14/04/2007 12:00 22,8 C 39 % 1013,9 hPa 0,0 l/m 20,9 km/h (4 Bft) E 0,90 h 0,483 mm 663 W/m 8,2 C 22,8 C 28,5 km/h (4 Bft)
14/04/2007 13:00 21,1 C 49 % 1014,0 hPa 0,0 l/m 12,6 km/h (3 Bft) E 1,00 h 0,610 mm 673 W/m 9,9 C 21,1 C 21,6 km/h (4 Bft)
14/04/2007 14:00 20,8 C 52 % 1014,4 hPa 0,0 l/m 10,3 km/h (2 Bft) E 0,92 h 0,483 mm 540 W/m 10,5 C 20,8 C 18,8 km/h (3 Bft)
14/04/2007 15:00 18,5 C 61 % 1015,6 hPa 0,0 l/m 9,9 km/h (2 Bft) E-NE 0,40 h 0,381 mm 391 W/m 10,8 C 18,5 C 15,3 km/h (3 Bft)
14/04/2007 16:00 19,2 C 57 % 1015,5 hPa 0,0 l/m 6,4 km/h (2 Bft) E 0,73 h 0,279 mm 430 W/m 10,5 C 19,2 C 10,8 km/h (2 Bft)
14/04/2007 17:00 19,3 C 53 % 1015,7 hPa 0,0 l/m 8,6 km/h (2 Bft) E 0,88 h 0,279 mm 390 W/m 9,6 C 19,3 C 12,4 km/h (3 Bft)
14/04/2007 18:00 19,1 C 54 % 1016,0 hPa 0,0 l/m 2,3 km/h (1 Bft) NE 0,75 h 0,279 mm 191 W/m 9,5 C 19,1 C 4,5 km/h (1 Bft)
14/04/2007 19:00 18,0 C 56 % 1015,9 hPa 0,0 l/m 1,5 km/h (1 Bft) NE 0,30 h 0,127 mm 58 W/m 9,1 C 18,0 C 3,0 km/h (1 Bft)
14/04/2007 20:00 16,2 C 62 % 1016,7 hPa 0,0 l/m 4,9 km/h (1 Bft) E 0,02 h 0,051 mm 8 W/m 9,0 C 16,2 C 7,5 km/h (2 Bft)
14/04/2007 21:00 15,5 C 62 % 1017,6 hPa 0,0 l/m 2,0 km/h (1 Bft) NE 0,00 h 0,025 mm 0 W/m 8,1 C 15,5 C 4,3 km/h (1 Bft)
14/04/2007 22:00 15,3 C 59 % 1018,0 hPa 0,0 l/m 2,5 km/h (1 Bft) N-NO 0,00 h 0,051 mm 0 W/m 7,4 C 15,3 C 4,7 km/h (1 Bft)
14/04/2007 23:00 14,4 C 61 % 1018,2 hPa 0,0 l/m 3,5 km/h (1 Bft) NO 0,00 h 0,051 mm 0 W/m 6,9 C 14,4 C 5,7 km/h (1 Bft)
15/04/2007 00:00 14,3 C 59 % 1017,8 hPa 0,0 l/m 3,5 km/h (1 Bft) N-NO 0,00 h 0,051 mm 0 W/m 6,5 C 14,3 C 5,2 km/h (1 Bft)
15/04/2007 01:00 13,9 C 60 % 1017,8 hPa 0,0 l/m 0,9 km/h (0 Bft) NO 0,00 h 0,051 mm 0 W/m 6,4 C 13,9 C 1,7 km/h (1 Bft)
15/04/2007 02:00 13,3 C 64 % 1017,8 hPa 0,0 l/m 5,0 km/h (1 Bft) NO 0,00 h 0,025 mm 0 W/m 6,6 C 13,3 C 7,0 km/h (2 Bft)
15/04/2007 03:00 13,2 C 63 % 1017,4 hPa 0,0 l/m 4,2 km/h (1 Bft) N-NO 0,00 h 0,051 mm 0 W/m 6,2 C 13,2 C 6,7 km/h (2 Bft)
15/04/2007 04:00 12,7 C 64 % 1017,4 hPa 0,0 l/m 3,9 km/h (1 Bft) N-NO 0,00 h 0,051 mm 0 W/m 6,1 C 12,7 C 6,2 km/h (2 Bft)
15/04/2007 05:00 12,8 C 63 % 1017,3 hPa 0,0 l/m 4,0 km/h (1 Bft) NO 0,00 h 0,051 mm 0 W/m 6,0 C 12,8 C 5,9 km/h (2 Bft)
15/04/2007 06:00 13,0 C 63 % 1017,1 hPa 0,0 l/m 3,1 km/h (1 Bft) NO 0,00 h 0,051 mm 7 W/m 6,1 C 13,0 C 4,7 km/h (1 Bft)
15/04/2007 07:00 13,1 C 63 % 1017,3 hPa 0,0 l/m 0,7 km/h (0 Bft) NO 0,02 h 0,025 mm 32 W/m 6,2 C 13,1 C 1,5 km/h (1 Bft)
15/04/2007 08:00 14,2 C 64 % 1017,8 hPa 0,0 l/m 0,2 km/h (0 Bft) O-SO 0,00 h 0,025 mm 106 W/m 7,4 C 14,2 C 0,9 km/h (0 Bft)
15/04/2007 09:00 16,2 C 63 % 1017,8 hPa 0,0 l/m 0,9 km/h (0 Bft) NE 0,08 h 0,076 mm 161 W/m 9,1 C 16,2 C 1,9 km/h (1 Bft)
15/04/2007 10:00 18,4 C 56 % 1017,7 hPa 0,0 l/m 1,3 km/h (1 Bft) N 0,72 h 0,102 mm 542 W/m 9,5 C 18,4 C 2,9 km/h (1 Bft)
15/04/2007 11:00 19,7 C 56 % 1017,6 hPa 0,0 l/m 3,2 km/h (1 Bft) E 0,20 h 0,330 mm 359 W/m 10,6 C 19,7 C 5,7 km/h (1 Bft)
15/04/2007 12:00 20,2 C 56 % 1017,7 hPa 0,0 l/m 4,3 km/h (1 Bft) SE 0,42 h 0,254 mm 576 W/m 11,1 C 20,2 C 7,8 km/h (2 Bft)
15/04/2007 13:00 20,6 C 55 % 1017,4 hPa 0,0 l/m 5,5 km/h (1 Bft) E 0,50 h 0,406 mm 578 W/m 11,1 C 20,6 C 9,2 km/h (2 Bft)
15/04/2007 14:00 21,1 C 48 % 1017,2 hPa 0,0 l/m 4,7 km/h (1 Bft) E 0,82 h 0,330 mm 730 W/m 9,7 C 21,1 C 8,3 km/h (2 Bft)
15/04/2007 15:00 21,3 C 43 % 1017,0 hPa 0,0 l/m 3,7 km/h (1 Bft) E 0,37 h 0,457 mm 452 W/m 8,3 C 21,3 C 6,4 km/h (2 Bft)
15/04/2007 16:00 20,6 C 44 % 1016,7 hPa 0,0 l/m 4,1 km/h (1 Bft) S-SE 0,00 h 0,279 mm 230 W/m 7,9 C 20,6 C 6,7 km/h (2 Bft)
15/04/2007 17:00 20,5 C 43 % 1016,8 hPa 0,0 l/m 3,2 km/h (1 Bft) S 0,48 h 0,178 mm 277 W/m 7,3 C 20,5 C 5,3 km/h (1 Bft)
15/04/2007 18:00 21,2 C 42 % 1016,6 hPa 0,0 l/m 0,3 km/h (0 Bft) E-SE 1,00 h 0,203 mm 224 W/m 7,7 C 21,2 C 1,1 km/h (0 Bft)
15/04/2007 19:00 20,2 C 44 % 1016,4 hPa 0,0 l/m 1,1 km/h (1 Bft) SE 0,43 h 0,152 mm 67 W/m 7,4 C 20,2 C 1,8 km/h (1 Bft)
15/04/2007 20:00 18,3 C 47 % 1016,6 hPa 0,0 l/m 4,5 km/h (1 Bft) SO 0,08 h 0,051 mm 10 W/m 6,8 C 18,3 C 5,8 km/h (1 Bft)
15/04/2007 21:00 17,5 C 51 % 1016,8 hPa 0,0 l/m 5,1 km/h (1 Bft) O 0,00 h 0,051 mm 0 W/m 7,3 C 17,5 C 7,4 km/h (2 Bft)
15/04/2007 22:00 16,5 C 54 % 1016,7 hPa 0,0 l/m 4,2 km/h (1 Bft) O-NO 0,00 h 0,076 mm 0 W/m 7,3 C 16,5 C 6,6 km/h (2 Bft)
15/04/2007 23:00 16,2 C 54 % 1016,6 hPa 0,0 l/m 5,0 km/h (1 Bft) O-NO 0,00 h 0,051 mm 0 W/m 6,9 C 16,2 C 7,7 km/h (2 Bft)
Min-Date _ 09/04/07 11/04/07 14/04/07 - 09/04/07 - - - - 12/04/07 09/04/07 09/04/07
_ Min-Heure 06:49 13:56 04:45 - 00:00 - - - - 02:48 06:57 00:00
Minimum _ 8,7 C 33 % 1012,2 hPa - 0,0 km/h (0 Bft) - - - - 1,1 C 8,0 C 0,0 km/h (0 Bft)
Max-Date _ 14/04/07 09/04/07 11/04/07 14/04/07 12/04/07 - 09/04/07 11/04/07 15/04/07 09/04/07 14/04/07 12/04/07
_ Max-Heure 12:12 03:06 11:00 00:03 17:05 - 07:10 14:00 14:52 12:28 12:12 17:05
Maximum _ 23,6 C 93 % 1020,7 hPa 2,6 l/m 30,6 km/h
E-NE (5 Bft)
- 0,02 h 0,635 mm 1025 W/m 12,9 C 23,6 C 45,1 km/h
E (6 Bft)
Moyenne _ 15,6 C 65 % 1017,6 hPa #6,0 l/m 5,8 km/h (2 Bft) E #32:36 h #22,238 mm 268 W/m 8,5 C 15,6 C 9,2 km/h (2 Bft)
Roquefort les pins